Terminal Aerodrome Forecast
Issued by NWS Wakefield, VA

Home | Current Version | Previous Version | Text Only | Print | Product List | Glossary On
Versions: 1 2 3 4 5 6 7 8 9 10 11 12 13 14 15 16
016
FTUS41 KAKQ 270522
TAFORF
TAF
KORF 270522Z 2706/2806 21004KT P6SM VCTS BKN100CB
     FM271000 VRB03KT P6SM BKN100
     FM271600 VRB03KT P6SM VCSH BKN100
     FM272200 12005KT P6SM VCSH BKN070
     FM280100 16004KT P6SM BKN090=

USA.gov is the U.S. government's official web portal to all federal, state and local government web resources and services.